KSTS/STS METAR and TAF weather

Enter ICAO airport designator
Station Type Date Time Source
KSTS METAR 2019/04/25 09:53 UTC NOAA

KSTS 250953Z AUTO 00000KT 7SM CLR 11/09 A2991 RMK AO2 SLP121 T01110094


Station Type Date Time Source
KSTS Decoded METAR 2019/04/25 09:53 UTC NOAA

SANTA ROSA SONOMA COUNTY, CA, United States (KSTS) 38-30N 122-49W 39M
Apr 25, 2019 - 05:53 AM EDT / 2019.04.25 0953 UTC
Wind: Calm:0
Visibility: 7 mile(s):0
Sky conditions: clear
Temperature: 52.0 F (11.1 C)
Dew Point: 48.9 F (9.4 C)
Relative Humidity: 89%
Pressure (altimeter): 29.91 in. Hg (1012 hPa)
ob: KSTS 250953Z AUTO 00000KT 7SM CLR 11/09 A2991 RMK AO2 SLP121 T01110094
cycle: 10

Station Type Date Time Source
KSTS TAF 2019/04/25 06:28 UTC NOAA

TAF KSTS 250525Z 2506/2606 14003KT P6SM SKC
FM251000 00000KT 4SM BR OVC003
FM251500 VRB03KT 6SM BR FEW003
FM251700 29003KT P6SM SKC
FM252100 17009KT P6SM SKC
FM260300 VRB03KT P6SM OVC003

Example: see airport list